sensor_id;sensor_type;location;lat;lon;timestamp;temperature;humidity
51305;HTU21D;37392;50.964;6.952;2023-01-30T00:01:33;4.02;109.40
51305;HTU21D;37392;50.964;6.952;2023-01-30T00:03:59;4.05;109.54
51305;HTU21D;37392;50.964;6.952;2023-01-30T00:06:26;4.14;109.30
51305;HTU21D;37392;50.964;6.952;2023-01-30T00:08:52;4.19;109.21
51305;HTU21D;37392;50.964;6.952;2023-01-30T00:11:19;4.23;109.07
51305;HTU21D;37392;50.964;6.952;2023-01-30T00:13:47;4.28;109.08
51305;HTU21D;37392;50.964;6.952;2023-01-30T00:16:13;4.31;108.99
51305;HTU21D;37392;50.964;6.952;2023-01-30T00:18:41;4.33;109.07
51305;HTU21D;37392;50.964;6.952;2023-01-30T00:21:09;4.35;108.93
51305;HTU21D;37392;50.964;6.952;2023-01-30T00:23:37;4.41;108.85
51305;HTU21D;37392;50.964;6.952;2023-01-30T00:26:04;4.43;108.81
51305;HTU21D;37392;50.964;6.952;2023-01-30T00:28:31;4.47;108.76
51305;HTU21D;37392;50.964;6.952;2023-01-30T00:30:56;4.48;108.81
51305;HTU21D;37392;50.964;6.952;2023-01-30T00:33:24;4.50;108.87
51305;HTU21D;37392;50.964;6.952;2023-01-30T00:35:52;4.51;108.82
51305;HTU21D;37392;50.964;6.952;2023-01-30T00:38:20;4.53;108.67
51305;HTU21D;37392;50.964;6.952;2023-01-30T00:40:46;4.53;108.49
51305;HTU21D;37392;50.964;6.952;2023-01-30T00:43:15;4.61;108.44
51305;HTU21D;37392;50.964;6.952;2023-01-30T00:46:10;4.61;108.43
51305;HTU21D;37392;50.964;6.952;2023-01-30T00:49:00;4.66;108.36
51305;HTU21D;37392;50.964;6.952;2023-01-30T00:51:25;4.67;108.44
51305;HTU21D;37392;50.964;6.952;2023-01-30T00:53:51;4.66;108.39
51305;HTU21D;37392;50.964;6.952;2023-01-30T00:56:16;4.71;108.37
51305;HTU21D;37392;50.964;6.952;2023-01-30T00:58:42;4.69;108.44
51305;HTU21D;37392;50.964;6.952;2023-01-30T01:01:08;4.71;108.16
51305;HTU21D;37392;50.964;6.952;2023-01-30T01:03:33;4.78;108.20
51305;HTU21D;37392;50.964;6.952;2023-01-30T01:05:59;4.79;108.20
51305;HTU21D;37392;50.964;6.952;2023-01-30T01:08:25;4.76;108.32
51305;HTU21D;37392;50.964;6.952;2023-01-30T01:10:50;4.77;108.36
51305;HTU21D;37392;50.964;6.952;2023-01-30T01:13:16;4.79;108.20
51305;HTU21D;37392;50.964;6.952;2023-01-30T01:15:41;4.84;108.14
51305;HTU21D;37392;50.964;6.952;2023-01-30T01:18:07;4.86;108.00
51305;HTU21D;37392;50.964;6.952;2023-01-30T01:20:33;4.86;108.05
51305;HTU21D;37392;50.964;6.952;2023-01-30T01:22:58;4.88;107.91
51305;HTU21D;37392;50.964;6.952;2023-01-30T01:25:24;4.87;107.85
51305;HTU21D;37392;50.964;6.952;2023-01-30T01:27:50;4.90;107.84
51305;HTU21D;37392;50.964;6.952;2023-01-30T01:30:16;4.95;107.72
51305;HTU21D;37392;50.964;6.952;2023-01-30T01:32:43;4.90;107.66
51305;HTU21D;37392;50.964;6.952;2023-01-30T01:35:09;4.93;107.52
51305;HTU21D;37392;50.964;6.952;2023-01-30T01:37:35;4.93;107.62
51305;HTU21D;37392;50.964;6.952;2023-01-30T01:40:00;4.93;107.81
51305;HTU21D;37392;50.964;6.952;2023-01-30T01:42:44;4.92;107.66
51305;HTU21D;37392;50.964;6.952;2023-01-30T01:48:04;4.95;107.47
51305;HTU21D;37392;50.964;6.952;2023-01-30T01:50:39;4.96;107.46
51305;HTU21D;37392;50.964;6.952;2023-01-30T01:53:11;5.00;107.38
51305;HTU21D;37392;50.964;6.952;2023-01-30T01:55:38;5.00;107.49
51305;HTU21D;37392;50.964;6.952;2023-01-30T01:58:15;5.01;107.29
51305;HTU21D;37392;50.964;6.952;2023-01-30T02:00:53;5.04;106.98
51305;HTU21D;37392;50.964;6.952;2023-01-30T02:03:23;5.06;106.82
51305;HTU21D;37392;50.964;6.952;2023-01-30T02:05:52;5.08;106.68
51305;HTU21D;37392;50.964;6.952;2023-01-30T02:08:37;5.08;106.75
51305;HTU21D;37392;50.964;6.952;2023-01-30T02:11:37;5.12;106.72
51305;HTU21D;37392;50.964;6.952;2023-01-30T02:14:10;5.10;106.70
51305;HTU21D;37392;50.964;6.952;2023-01-30T02:16:36;5.10;106.72
51305;HTU21D;37392;50.964;6.952;2023-01-30T02:19:05;5.13;106.70
51305;HTU21D;37392;50.964;6.952;2023-01-30T02:33:13;5.20;106.66
51305;HTU21D;37392;50.964;6.952;2023-01-30T02:41:42;5.19;107.35
51305;HTU21D;37392;50.964;6.952;2023-01-30T02:44:39;5.20;107.98
51305;HTU21D;37392;50.964;6.952;2023-01-30T02:47:23;5.17;108.28
51305;HTU21D;37392;50.964;6.952;2023-01-30T02:49:56;5.15;108.61
51305;HTU21D;37392;50.964;6.952;2023-01-30T02:52:26;5.12;108.62
51305;HTU21D;37392;50.964;6.952;2023-01-30T02:54:51;5.09;108.74
51305;HTU21D;37392;50.964;6.952;2023-01-30T02:57:22;5.06;108.85
51305;HTU21D;37392;50.964;6.952;2023-01-30T02:59:52;5.10;108.65
51305;HTU21D;37392;50.964;6.952;2023-01-30T03:14:32;5.19;108.09
51305;HTU21D;37392;50.964;6.952;2023-01-30T03:17:13;5.20;107.92
51305;HTU21D;37392;50.964;6.952;2023-01-30T03:19:41;5.23;107.83
51305;HTU21D;37392;50.964;6.952;2023-01-30T03:22:07;5.23;107.81
51305;HTU21D;37392;50.964;6.952;2023-01-30T03:24:33;5.19;107.87
51305;HTU21D;37392;50.964;6.952;2023-01-30T03:27:03;5.24;107.88
51305;HTU21D;37392;50.964;6.952;2023-01-30T03:29:30;5.23;107.78
51305;HTU21D;37392;50.964;6.952;2023-01-30T03:31:56;5.21;107.82
51305;HTU21D;37392;50.964;6.952;2023-01-30T03:34:21;5.26;107.82
51305;HTU21D;37392;50.964;6.952;2023-01-30T03:36:47;5.31;107.48
51305;HTU21D;37392;50.964;6.952;2023-01-30T03:39:13;5.28;107.37
51305;HTU21D;37392;50.964;6.952;2023-01-30T03:41:38;5.33;107.52
51305;HTU21D;37392;50.964;6.952;2023-01-30T03:44:04;5.28;107.49
51305;HTU21D;37392;50.964;6.952;2023-01-30T03:46:30;5.35;107.37
51305;HTU21D;37392;50.964;6.952;2023-01-30T03:48:55;5.38;107.19
51305;HTU21D;37392;50.964;6.952;2023-01-30T03:51:21;5.41;107.05
51305;HTU21D;37392;50.964;6.952;2023-01-30T03:53:46;5.42;107.01
51305;HTU21D;37392;50.964;6.952;2023-01-30T03:56:12;5.42;106.83
51305;HTU21D;37392;50.964;6.952;2023-01-30T03:58:37;5.43;106.72
51305;HTU21D;37392;50.964;6.952;2023-01-30T04:01:03;5.46;106.72
51305;HTU21D;37392;50.964;6.952;2023-01-30T04:03:28;5.46;106.59
51305;HTU21D;37392;50.964;6.952;2023-01-30T04:05:54;5.46;106.63
51305;HTU21D;37392;50.964;6.952;2023-01-30T04:08:20;5.48;106.87
51305;HTU21D;37392;50.964;6.952;2023-01-30T04:10:45;5.49;107.18
51305;HTU21D;37392;50.964;6.952;2023-01-30T04:13:11;5.48;107.20
51305;HTU21D;37392;50.964;6.952;2023-01-30T04:15:36;5.50;107.41
51305;HTU21D;37392;50.964;6.952;2023-01-30T04:18:02;5.50;107.58
51305;HTU21D;37392;50.964;6.952;2023-01-30T04:20:27;5.52;107.68
51305;HTU21D;37392;50.964;6.952;2023-01-30T04:22:54;5.55;107.90
51305;HTU21D;37392;50.964;6.952;2023-01-30T04:25:20;5.56;107.90
51305;HTU21D;37392;50.964;6.952;2023-01-30T04:27:46;5.51;108.14
51305;HTU21D;37392;50.964;6.952;2023-01-30T04:30:13;5.54;108.15
51305;HTU21D;37392;50.964;6.952;2023-01-30T04:32:38;5.57;108.37
51305;HTU21D;37392;50.964;6.952;2023-01-30T04:35:04;5.57;108.70
51305;HTU21D;37392;50.964;6.952;2023-01-30T04:37:30;5.60;108.87
51305;HTU21D;37392;50.964;6.952;2023-01-30T04:39:56;5.63;109.30
51305;HTU21D;37392;50.964;6.952;2023-01-30T04:42:21;5.61;110.01
51305;HTU21D;37392;50.964;6.952;2023-01-30T04:44:47;5.61;110.43
51305;HTU21D;37392;50.964;6.952;2023-01-30T04:47:12;5.60;110.52
51305;HTU21D;37392;50.964;6.952;2023-01-30T04:49:38;5.59;110.66
51305;HTU21D;37392;50.964;6.952;2023-01-30T04:52:03;5.59;110.78
51305;HTU21D;37392;50.964;6.952;2023-01-30T04:54:29;5.59;110.81
51305;HTU21D;37392;50.964;6.952;2023-01-30T04:56:55;5.63;110.67
51305;HTU21D;37392;50.964;6.952;2023-01-30T04:59:21;5.63;110.67
51305;HTU21D;37392;50.964;6.952;2023-01-30T05:01:47;5.63;111.07
51305;HTU21D;37392;50.964;6.952;2023-01-30T05:04:13;5.61;111.69
51305;HTU21D;37392;50.964;6.952;2023-01-30T05:06:38;5.59;112.30
51305;HTU21D;37392;50.964;6.952;2023-01-30T05:09:04;5.56;112.94
51305;HTU21D;37392;50.964;6.952;2023-01-30T05:11:30;5.51;113.64
51305;HTU21D;37392;50.964;6.952;2023-01-30T05:13:57;5.52;113.75
51305;HTU21D;37392;50.964;6.952;2023-01-30T05:16:22;5.50;114.03
51305;HTU21D;37392;50.964;6.952;2023-01-30T05:18:49;5.51;114.20
51305;HTU21D;37392;50.964;6.952;2023-01-30T05:21:18;5.50;114.63
51305;HTU21D;37392;50.964;6.952;2023-01-30T05:23:50;5.47;115.08
51305;HTU21D;37392;50.964;6.952;2023-01-30T05:26:18;5.50;115.50
51305;HTU21D;37392;50.964;6.952;2023-01-30T05:28:44;5.50;115.60
51305;HTU21D;37392;50.964;6.952;2023-01-30T05:31:20;5.48;116.16
51305;HTU21D;37392;50.964;6.952;2023-01-30T05:33:48;5.42;117.23
51305;HTU21D;37392;50.964;6.952;2023-01-30T05:36:16;5.48;117.33
51305;HTU21D;37392;50.964;6.952;2023-01-30T05:38:43;5.45;117.69
51305;HTU21D;37392;50.964;6.952;2023-01-30T05:41:10;5.40;118.18
51305;HTU21D;37392;50.964;6.952;2023-01-30T05:43:36;5.37;118.40
51305;HTU21D;37392;50.964;6.952;2023-01-30T05:46:04;5.41;118.94
51305;HTU21D;37392;50.964;6.952;2023-01-30T05:48:31;5.39;118.89
51305;HTU21D;37392;50.964;6.952;2023-01-30T05:50:58;5.41;-5.77
51305;HTU21D;37392;50.964;6.952;2023-01-30T05:53:27;5.40;-5.78
51305;HTU21D;37392;50.964;6.952;2023-01-30T05:55:55;5.38;-5.71
51305;HTU21D;37392;50.964;6.952;2023-01-30T05:58:22;5.34;-5.44
51305;HTU21D;37392;50.964;6.952;2023-01-30T06:00:48;5.34;-5.10
51305;HTU21D;37392;50.964;6.952;2023-01-30T06:03:13;5.33;-4.95
51305;HTU21D;37392;50.964;6.952;2023-01-30T06:05:39;5.32;-5.14
51305;HTU21D;37392;50.964;6.952;2023-01-30T06:08:05;5.28;-4.96
51305;HTU21D;37392;50.964;6.952;2023-01-30T06:10:32;5.26;-4.83
51305;HTU21D;37392;50.964;6.952;2023-01-30T06:12:58;5.30;-4.42
51305;HTU21D;37392;50.964;6.952;2023-01-30T06:15:24;5.26;-4.27
51305;HTU21D;37392;50.964;6.952;2023-01-30T06:17:49;5.26;-4.21
51305;HTU21D;37392;50.964;6.952;2023-01-30T06:20:15;5.27;-3.95
51305;HTU21D;37392;50.964;6.952;2023-01-30T06:22:40;5.30;-4.13
51305;HTU21D;37392;50.964;6.952;2023-01-30T06:25:06;5.28;-3.72
51305;HTU21D;37392;50.964;6.952;2023-01-30T06:27:33;5.30;-3.67
51305;HTU21D;37392;50.964;6.952;2023-01-30T06:29:59;5.33;-3.64
51305;HTU21D;37392;50.964;6.952;2023-01-30T06:32:25;5.32;-3.54
51305;HTU21D;37392;50.964;6.952;2023-01-30T06:34:50;5.34;-3.57
51305;HTU21D;37392;50.964;6.952;2023-01-30T06:37:16;5.36;-3.46
51305;HTU21D;37392;50.964;6.952;2023-01-30T06:39:42;5.38;-3.43
51305;HTU21D;37392;50.964;6.952;2023-01-30T06:42:07;5.37;-3.15
51305;HTU21D;37392;50.964;6.952;2023-01-30T06:44:33;5.39;-3.20
51305;HTU21D;37392;50.964;6.952;2023-01-30T06:46:58;5.41;-2.99
51305;HTU21D;37392;50.964;6.952;2023-01-30T06:49:24;5.41;-3.25
51305;HTU21D;37392;50.964;6.952;2023-01-30T06:51:49;5.46;-3.37
51305;HTU21D;37392;50.964;6.952;2023-01-30T06:54:15;5.43;-3.38
51305;HTU21D;37392;50.964;6.952;2023-01-30T06:56:41;5.49;-3.07
51305;HTU21D;37392;50.964;6.952;2023-01-30T06:59:07;5.49;-3.07
51305;HTU21D;37392;50.964;6.952;2023-01-30T07:01:32;5.51;-2.86
51305;HTU21D;37392;50.964;6.952;2023-01-30T07:03:58;5.51;-3.02
51305;HTU21D;37392;50.964;6.952;2023-01-30T07:06:25;5.51;-2.63
51305;HTU21D;37392;50.964;6.952;2023-01-30T07:08:51;5.56;-2.77
51305;HTU21D;37392;50.964;6.952;2023-01-30T07:11:17;5.53;-2.82
51305;HTU21D;37392;50.964;6.952;2023-01-30T07:13:43;5.55;-2.51
51305;HTU21D;37392;50.964;6.952;2023-01-30T07:16:09;5.59;-2.32
51305;HTU21D;37392;50.964;6.952;2023-01-30T07:18:35;5.59;-2.20
51305;HTU21D;37392;50.964;6.952;2023-01-30T07:21:00;5.59;-1.90
51305;HTU21D;37392;50.964;6.952;2023-01-30T07:23:26;5.61;-1.94
51305;HTU21D;37392;50.964;6.952;2023-01-30T07:25:52;5.64;-1.79
51305;HTU21D;37392;50.964;6.952;2023-01-30T07:28:17;5.64;-1.73
51305;HTU21D;37392;50.964;6.952;2023-01-30T07:30:43;5.67;-1.55
51305;HTU21D;37392;50.964;6.952;2023-01-30T07:33:08;5.68;-1.48
51305;HTU21D;37392;50.964;6.952;2023-01-30T07:35:35;5.68;-1.40
51305;HTU21D;37392;50.964;6.952;2023-01-30T07:38:02;5.67;-1.34
51305;HTU21D;37392;50.964;6.952;2023-01-30T07:40:28;5.70;-1.03
51305;HTU21D;37392;50.964;6.952;2023-01-30T07:43:02;5.77;-0.84
51305;HTU21D;37392;50.964;6.952;2023-01-30T07:45:33;5.77;-0.80
51305;HTU21D;37392;50.964;6.952;2023-01-30T07:48:01;5.78;-0.80
51305;HTU21D;37392;50.964;6.952;2023-01-30T07:50:26;5.78;-0.81
51305;HTU21D;37392;50.964;6.952;2023-01-30T07:52:52;5.81;-0.58
51305;HTU21D;37392;50.964;6.952;2023-01-30T07:55:18;5.83;-0.53
51305;HTU21D;37392;50.964;6.952;2023-01-30T07:57:43;5.87;-0.42
51305;HTU21D;37392;50.964;6.952;2023-01-30T08:00:10;5.90;-0.38
51305;HTU21D;37392;50.964;6.952;2023-01-30T08:02:37;5.97;-0.29
51305;HTU21D;37392;50.964;6.952;2023-01-30T08:05:03;6.00;-0.32
51305;HTU21D;37392;50.964;6.952;2023-01-30T08:07:29;6.02;-0.34
51305;HTU21D;37392;50.964;6.952;2023-01-30T08:09:54;6.06;-0.48
51305;HTU21D;37392;50.964;6.952;2023-01-30T08:12:21;6.10;-0.69
51305;HTU21D;37392;50.964;6.952;2023-01-30T08:14:46;6.15;-0.75
51305;HTU21D;37392;50.964;6.952;2023-01-30T08:17:12;6.19;-0.77
51305;HTU21D;37392;50.964;6.952;2023-01-30T08:19:37;6.19;-0.70
51305;HTU21D;37392;50.964;6.952;2023-01-30T08:22:03;6.23;-1.00
51305;HTU21D;37392;50.964;6.952;2023-01-30T08:24:29;6.26;-1.20
51305;HTU21D;37392;50.964;6.952;2023-01-30T08:26:54;6.28;-1.06
51305;HTU21D;37392;50.964;6.952;2023-01-30T08:29:20;6.37;-1.02
51305;HTU21D;37392;50.964;6.952;2023-01-30T08:31:46;6.39;-1.16
51305;HTU21D;37392;50.964;6.952;2023-01-30T08:34:12;6.44;-1.04
51305;HTU21D;37392;50.964;6.952;2023-01-30T08:36:37;6.49;-1.25
51305;HTU21D;37392;50.964;6.952;2023-01-30T08:39:04;6.52;-1.73
51305;HTU21D;37392;50.964;6.952;2023-01-30T08:41:29;6.52;-1.82
51305;HTU21D;37392;50.964;6.952;2023-01-30T08:43:55;6.40;-1.80
51305;HTU21D;37392;50.964;6.952;2023-01-30T08:46:20;6.50;-1.12
51305;HTU21D;37392;50.964;6.952;2023-01-30T08:48:47;6.48;-2.12
51305;HTU21D;37392;50.964;6.952;2023-01-30T08:51:15;6.36;-2.76
51305;HTU21D;37392;50.964;6.952;2023-01-30T08:53:41;6.68;-0.87
51305;HTU21D;37392;50.964;6.952;2023-01-30T08:56:07;7.23;-0.75
51305;HTU21D;37392;50.964;6.952;2023-01-30T08:58:32;7.38;-2.12
51305;HTU21D;37392;50.964;6.952;2023-01-30T09:00:58;7.29;-3.72
51305;HTU21D;37392;50.964;6.952;2023-01-30T09:03:29;7.58;-2.60
51305;HTU21D;37392;50.964;6.952;2023-01-30T09:05:55;8.07;-3.34
51305;HTU21D;37392;50.964;6.952;2023-01-30T09:08:21;8.64;-3.55
51305;HTU21D;37392;50.964;6.952;2023-01-30T09:10:46;8.64;116.98
51305;HTU21D;37392;50.964;6.952;2023-01-30T09:13:15;8.37;115.70
51305;HTU21D;37392;50.964;6.952;2023-01-30T09:15:42;8.29;116.14
51305;HTU21D;37392;50.964;6.952;2023-01-30T09:18:08;8.81;116.86
51305;HTU21D;37392;50.964;6.952;2023-01-30T09:20:34;9.48;114.58
51305;HTU21D;37392;50.964;6.952;2023-01-30T09:23:00;9.89;112.16
51305;HTU21D;37392;50.964;6.952;2023-01-30T09:25:26;10.25;110.58
51305;HTU21D;37392;50.964;6.952;2023-01-30T09:27:51;10.20;106.59
51305;HTU21D;37392;50.964;6.952;2023-01-30T09:30:17;9.74;106.43
51305;HTU21D;37392;50.964;6.952;2023-01-30T09:32:43;9.63;108.41
51305;HTU21D;37392;50.964;6.952;2023-01-30T09:35:09;9.71;108.38
51305;HTU21D;37392;50.964;6.952;2023-01-30T09:37:35;9.63;106.34
51305;HTU21D;37392;50.964;6.952;2023-01-30T09:40:00;9.44;105.26
51305;HTU21D;37392;50.964;6.952;2023-01-30T09:48:29;10.33;103.70
51305;HTU21D;37392;50.964;6.952;2023-01-30T09:51:38;10.56;101.69
51305;HTU21D;37392;50.964;6.952;2023-01-30T09:54:24;10.24;99.17
51305;HTU21D;37392;50.964;6.952;2023-01-30T10:05:39;11.84;91.34
51305;HTU21D;37392;50.964;6.952;2023-01-30T10:08:22;12.01;89.99
51305;HTU21D;37392;50.964;6.952;2023-01-30T10:28:21;10.12;91.82
51305;HTU21D;37392;50.964;6.952;2023-01-30T10:30:55;9.89;91.42
51305;HTU21D;37392;50.964;6.952;2023-01-30T10:33:39;9.78;93.24
51305;HTU21D;37392;50.964;6.952;2023-01-30T10:36:35;9.59;92.04
51305;HTU21D;37392;50.964;6.952;2023-01-30T10:39:44;9.54;92.10
51305;HTU21D;37392;50.964;6.952;2023-01-30T10:42:16;9.48;92.63
51305;HTU21D;37392;50.964;6.952;2023-01-30T10:44:46;9.51;92.69
51305;HTU21D;37392;50.964;6.952;2023-01-30T10:50:22;9.62;92.23
51305;HTU21D;37392;50.964;6.952;2023-01-30T10:53:16;9.64;90.34
51305;HTU21D;37392;50.964;6.952;2023-01-30T10:56:08;9.64;90.61
51305;HTU21D;37392;50.964;6.952;2023-01-30T10:58:57;9.66;90.51
51305;HTU21D;37392;50.964;6.952;2023-01-30T11:01:46;9.65;89.87
51305;HTU21D;37392;50.964;6.952;2023-01-30T11:04:28;9.59;90.04
51305;HTU21D;37392;50.964;6.952;2023-01-30T11:07:03;9.49;88.86
51305;HTU21D;37392;50.964;6.952;2023-01-30T11:09:57;9.52;88.51
51305;HTU21D;37392;50.964;6.952;2023-01-30T11:12:24;9.51;88.70
51305;HTU21D;37392;50.964;6.952;2023-01-30T11:14:58;9.53;89.25
51305;HTU21D;37392;50.964;6.952;2023-01-30T11:17:36;9.41;88.04
51305;HTU21D;37392;50.964;6.952;2023-01-30T11:20:06;9.38;88.69
51305;HTU21D;37392;50.964;6.952;2023-01-30T11:22:36;9.33;87.70
51305;HTU21D;37392;50.964;6.952;2023-01-30T11:25:05;9.24;87.59
51305;HTU21D;37392;50.964;6.952;2023-01-30T11:27:41;9.12;88.03
51305;HTU21D;37392;50.964;6.952;2023-01-30T11:32:41;9.05;87.55
51305;HTU21D;37392;50.964;6.952;2023-01-30T11:37:44;8.92;87.75
51305;HTU21D;37392;50.964;6.952;2023-01-30T11:42:48;8.94;89.50
51305;HTU21D;37392;50.964;6.952;2023-01-30T11:45:17;9.01;88.65
51305;HTU21D;37392;50.964;6.952;2023-01-30T11:48:00;9.16;88.25
51305;HTU21D;37392;50.964;6.952;2023-01-30T11:50:41;9.16;87.48
51305;HTU21D;37392;50.964;6.952;2023-01-30T11:53:33;9.29;86.99
51305;HTU21D;37392;50.964;6.952;2023-01-30T11:59:28;9.56;86.16
51305;HTU21D;37392;50.964;6.952;2023-01-30T12:04:54;9.44;85.84
51305;HTU21D;37392;50.964;6.952;2023-01-30T12:09:50;9.41;85.85
51305;HTU21D;37392;50.964;6.952;2023-01-30T12:12:44;9.39;85.64
51305;HTU21D;37392;50.964;6.952;2023-01-30T12:26:57;9.10;86.32
51305;HTU21D;37392;50.964;6.952;2023-01-30T12:29:36;9.09;85.95
51305;HTU21D;37392;50.964;6.952;2023-01-30T12:32:14;9.08;84.74
51305;HTU21D;37392;50.964;6.952;2023-01-30T12:34:42;9.04;84.33
51305;HTU21D;37392;50.964;6.952;2023-01-30T12:40:49;9.08;84.71
51305;HTU21D;37392;50.964;6.952;2023-01-30T12:43:47;9.06;84.74
51305;HTU21D;37392;50.964;6.952;2023-01-30T12:46:35;9.14;85.13
51305;HTU21D;37392;50.964;6.952;2023-01-30T12:58:13;9.54;83.35
51305;HTU21D;37392;50.964;6.952;2023-01-30T13:03:21;9.82;82.84
51305;HTU21D;37392;50.964;6.952;2023-01-30T13:12:30;10.07;80.75
51305;HTU21D;37392;50.964;6.952;2023-01-30T13:21:04;10.03;79.50
51305;HTU21D;37392;50.964;6.952;2023-01-30T13:26:27;9.83;79.51
51305;HTU21D;37392;50.964;6.952;2023-01-30T13:29:00;9.76;80.05
51305;HTU21D;37392;50.964;6.952;2023-01-30T13:31:31;9.68;79.22
51305;HTU21D;37392;50.964;6.952;2023-01-30T13:34:06;9.61;80.14
51305;HTU21D;37392;50.964;6.952;2023-01-30T13:36:53;9.53;80.13
51305;HTU21D;37392;50.964;6.952;2023-01-30T13:45:20;9.62;79.28
51305;HTU21D;37392;50.964;6.952;2023-01-30T13:54:32;9.53;78.98
51305;HTU21D;37392;50.964;6.952;2023-01-30T13:56:56;9.53;79.96
51305;HTU21D;37392;50.964;6.952;2023-01-30T14:02:21;9.41;79.95
51305;HTU21D;37392;50.964;6.952;2023-01-30T14:04:53;9.34;79.76
51305;HTU21D;37392;50.964;6.952;2023-01-30T14:07:42;9.35;80.18
51305;HTU21D;37392;50.964;6.952;2023-01-30T14:12:46;9.32;80.22
51305;HTU21D;37392;50.964;6.952;2023-01-30T14:20:31;9.37;80.67
51305;HTU21D;37392;50.964;6.952;2023-01-30T14:23:00;9.39;80.15
51305;HTU21D;37392;50.964;6.952;2023-01-30T14:57:01;8.95;80.92
51305;HTU21D;37392;50.964;6.952;2023-01-30T14:59:45;8.92;80.07
51305;HTU21D;37392;50.964;6.952;2023-01-30T15:07:36;8.86;80.07
51305;HTU21D;37392;50.964;6.952;2023-01-30T15:18:38;8.80;80.74
51305;HTU21D;37392;50.964;6.952;2023-01-30T15:27:51;8.71;81.58
51305;HTU21D;37392;50.964;6.952;2023-01-30T15:30:50;8.61;85.48
51305;HTU21D;37392;50.964;6.952;2023-01-30T15:33:25;8.48;84.49
51305;HTU21D;37392;50.964;6.952;2023-01-30T15:35:51;8.37;83.59
51305;HTU21D;37392;50.964;6.952;2023-01-30T15:38:37;8.38;84.53
51305;HTU21D;37392;50.964;6.952;2023-01-30T15:41:05;8.37;84.00
51305;HTU21D;37392;50.964;6.952;2023-01-30T15:46:47;8.29;84.02
51305;HTU21D;37392;50.964;6.952;2023-01-30T15:52:13;8.19;83.70
51305;HTU21D;37392;50.964;6.952;2023-01-30T15:54:46;8.21;83.71
51305;HTU21D;37392;50.964;6.952;2023-01-30T15:57:28;8.20;83.74
51305;HTU21D;37392;50.964;6.952;2023-01-30T15:59:58;8.17;83.57
51305;HTU21D;37392;50.964;6.952;2023-01-30T16:02:32;8.15;84.45
51305;HTU21D;37392;50.964;6.952;2023-01-30T16:05:16;8.13;84.07
51305;HTU21D;37392;50.964;6.952;2023-01-30T16:07:46;8.12;84.80
51305;HTU21D;37392;50.964;6.952;2023-01-30T16:10:25;8.03;84.69
51305;HTU21D;37392;50.964;6.952;2023-01-30T16:12:54;7.83;85.20
51305;HTU21D;37392;50.964;6.952;2023-01-30T16:21:00;7.24;88.51
51305;HTU21D;37392;50.964;6.952;2023-01-30T16:23:36;7.15;89.18
51305;HTU21D;37392;50.964;6.952;2023-01-30T16:26:08;7.18;89.34
51305;HTU21D;37392;50.964;6.952;2023-01-30T16:28:37;7.23;89.29
51305;HTU21D;37392;50.964;6.952;2023-01-30T16:31:07;7.23;89.12
51305;HTU21D;37392;50.964;6.952;2023-01-30T16:41:58;6.82;89.53
51305;HTU21D;37392;50.964;6.952;2023-01-30T16:44:37;6.68;90.15
51305;HTU21D;37392;50.964;6.952;2023-01-30T16:47:05;6.55;90.39
51305;HTU21D;37392;50.964;6.952;2023-01-30T16:49:52;6.48;91.02
51305;HTU21D;37392;50.964;6.952;2023-01-30T16:52:27;6.49;91.09
51305;HTU21D;37392;50.964;6.952;2023-01-30T16:55:18;6.52;90.67
51305;HTU21D;37392;50.964;6.952;2023-01-30T16:58:01;6.49;90.60
51305;HTU21D;37392;50.964;6.952;2023-01-30T17:00:41;6.48;91.00
51305;HTU21D;37392;50.964;6.952;2023-01-30T17:07:04;6.58;90.60
51305;HTU21D;37392;50.964;6.952;2023-01-30T17:09:53;6.67;90.03
51305;HTU21D;37392;50.964;6.952;2023-01-30T17:12:44;6.72;90.25
51305;HTU21D;37392;50.964;6.952;2023-01-30T17:15:30;6.76;89.90
51305;HTU21D;37392;50.964;6.952;2023-01-30T17:18:07;6.81;90.05
51305;HTU21D;37392;50.964;6.952;2023-01-30T17:20:41;6.83;89.73
51305;HTU21D;37392;50.964;6.952;2023-01-30T17:23:19;6.84;89.54
51305;HTU21D;37392;50.964;6.952;2023-01-30T17:25:54;6.84;90.00
51305;HTU21D;37392;50.964;6.952;2023-01-30T17:28:32;6.83;89.97
51305;HTU21D;37392;50.964;6.952;2023-01-30T17:31:35;6.83;89.88
51305;HTU21D;37392;50.964;6.952;2023-01-30T17:34:03;6.86;89.83
51305;HTU21D;37392;50.964;6.952;2023-01-30T17:36:58;6.88;90.05
51305;HTU21D;37392;50.964;6.952;2023-01-30T17:39:35;6.87;89.96
51305;HTU21D;37392;50.964;6.952;2023-01-30T17:42:01;6.90;89.96
51305;HTU21D;37392;50.964;6.952;2023-01-30T17:44:26;6.90;89.67
51305;HTU21D;37392;50.964;6.952;2023-01-30T17:46:52;6.95;89.50
51305;HTU21D;37392;50.964;6.952;2023-01-30T17:49:20;6.97;90.28
51305;HTU21D;37392;50.964;6.952;2023-01-30T17:51:47;6.96;90.01
51305;HTU21D;37392;50.964;6.952;2023-01-30T17:54:13;6.91;89.92
51305;HTU21D;37392;50.964;6.952;2023-01-30T17:57:03;6.89;90.28
51305;HTU21D;37392;50.964;6.952;2023-01-30T17:59:30;6.89;90.76
51305;HTU21D;37392;50.964;6.952;2023-01-30T18:01:57;6.87;90.72
51305;HTU21D;37392;50.964;6.952;2023-01-30T18:04:23;6.88;90.09
51305;HTU21D;37392;50.964;6.952;2023-01-30T18:06:51;6.91;90.25
51305;HTU21D;37392;50.964;6.952;2023-01-30T18:09:22;6.88;90.64
51305;HTU21D;37392;50.964;6.952;2023-01-30T18:11:48;6.85;90.91
51305;HTU21D;37392;50.964;6.952;2023-01-30T18:14:15;6.85;90.62
51305;HTU21D;37392;50.964;6.952;2023-01-30T18:16:42;6.82;90.63
51305;HTU21D;37392;50.964;6.952;2023-01-30T18:19:11;6.71;90.54
51305;HTU21D;37392;50.964;6.952;2023-01-30T18:21:38;6.58;91.25
51305;HTU21D;37392;50.964;6.952;2023-01-30T18:24:14;6.43;91.75
51305;HTU21D;37392;50.964;6.952;2023-01-30T18:26:40;6.31;92.23
51305;HTU21D;37392;50.964;6.952;2023-01-30T18:29:07;6.15;92.82
51305;HTU21D;37392;50.964;6.952;2023-01-30T18:31:37;5.97;93.62
51305;HTU21D;37392;50.964;6.952;2023-01-30T18:34:04;5.78;94.16
51305;HTU21D;37392;50.964;6.952;2023-01-30T18:36:34;5.71;95.02
51305;HTU21D;37392;50.964;6.952;2023-01-30T18:39:00;5.59;95.26
51305;HTU21D;37392;50.964;6.952;2023-01-30T18:41:27;5.64;95.59
51305;HTU21D;37392;50.964;6.952;2023-01-30T18:43:55;5.62;95.63
51305;HTU21D;37392;50.964;6.952;2023-01-30T18:46:23;5.71;95.99
51305;HTU21D;37392;50.964;6.952;2023-01-30T18:48:48;5.75;95.76
51305;HTU21D;37392;50.964;6.952;2023-01-30T18:51:19;5.63;95.60
51305;HTU21D;37392;50.964;6.952;2023-01-30T18:53:48;5.49;95.88
51305;HTU21D;37392;50.964;6.952;2023-01-30T18:56:18;5.37;96.48
51305;HTU21D;37392;50.964;6.952;2023-01-30T18:58:45;5.28;96.98
51305;HTU21D;37392;50.964;6.952;2023-01-30T19:01:19;5.26;97.33
51305;HTU21D;37392;50.964;6.952;2023-01-30T19:03:46;5.33;97.45
51305;HTU21D;37392;50.964;6.952;2023-01-30T19:06:13;5.48;97.06
51305;HTU21D;37392;50.964;6.952;2023-01-30T19:08:41;5.70;96.73
51305;HTU21D;37392;50.964;6.952;2023-01-30T19:11:08;5.85;95.66
51305;HTU21D;37392;50.964;6.952;2023-01-30T19:14:04;5.99;94.94
51305;HTU21D;37392;50.964;6.952;2023-01-30T19:16:31;6.06;94.72
51305;HTU21D;37392;50.964;6.952;2023-01-30T19:18:58;5.99;94.85
51305;HTU21D;37392;50.964;6.952;2023-01-30T19:21:25;5.95;95.16
51305;HTU21D;37392;50.964;6.952;2023-01-30T19:23:51;5.84;95.27
51305;HTU21D;37392;50.964;6.952;2023-01-30T19:26:19;5.78;95.63
51305;HTU21D;37392;50.964;6.952;2023-01-30T19:28:45;5.68;96.30
51305;HTU21D;37392;50.964;6.952;2023-01-30T19:31:13;5.57;96.68